Terminal Aerodrome Forecast
Issued by NWS

Home | Current Version | Previous Version | Text Only | Print | Product List | Glossary On
Versions: 1 2 3 4 5 6 7 8 9 10 11 12 13 14 15 16 17
452
FTUS43 KIND 241120
TAFHUF
TAF
KHUF 241120Z 2412/2512 03006KT P6SM VCSH OVC020
     FM241300 02005KT P6SM VCSH OVC015 PROB30 2421/2422 4SM -SHRA
      OVC008
     FM242200 01005KT P6SM OVC020 PROB30 2422/2424 4SM -SHRA OVC015
     FM250100 01005KT P6SM BKN035
     FM250300 36005KT P6SM BKN025
     FM250800 35010KT P6SM BKN010=

USA.gov is the U.S. government's official web portal to all federal, state and local government web resources and services.